createdAt,value
2019-03-10T00:00:30.562Z,7.52
2019-03-10T00:02:59.893Z,7.53
2019-03-10T00:05:29.224Z,7.54
2019-03-10T00:07:58.553Z,7.55
2019-03-10T00:10:29.386Z,7.57
2019-03-10T00:12:58.801Z,7.58
2019-03-10T00:15:28.257Z,7.61
2019-03-10T00:17:57.605Z,7.63
2019-03-10T00:20:26.910Z,7.64
2019-03-10T00:22:56.244Z,7.67
2019-03-10T00:25:25.586Z,7.68
2019-03-10T00:27:55.051Z,7.70
2019-03-10T00:30:24.382Z,7.73
2019-03-10T00:32:53.717Z,7.75
2019-03-10T00:35:23.054Z,7.78
2019-03-10T00:37:52.401Z,7.80
2019-03-10T00:41:21.192Z,7.87
2019-03-10T00:44:39.616Z,7.96
2019-03-10T00:47:54.996Z,8.18
2019-03-10T00:51:10.704Z,8.69
2019-03-10T00:53:40.025Z,8.97
2019-03-10T00:56:09.450Z,9.37
2019-03-10T00:58:39.064Z,9.57
2019-03-10T01:01:08.410Z,9.76
2019-03-10T01:03:37.750Z,9.89
2019-03-10T01:06:07.065Z,9.99
2019-03-10T01:08:37.528Z,10.09
2019-03-10T01:11:07.278Z,10.13
2019-03-10T01:13:38.100Z,10.19
2019-03-10T01:16:07.571Z,10.27
2019-03-10T01:18:37.709Z,10.27
2019-03-10T01:21:07.067Z,10.34
2019-03-10T01:23:38.296Z,10.35
2019-03-10T01:26:07.646Z,10.37
2019-03-10T01:28:36.989Z,10.39
2019-03-10T01:31:26.593Z,10.41
2019-03-10T01:34:19.690Z,10.45
2019-03-10T01:36:49.022Z,10.45
2019-03-10T01:39:18.373Z,10.44
2019-03-10T01:41:47.685Z,10.46
2019-03-10T01:44:17.026Z,10.48
2019-03-10T01:46:46.366Z,10.46
2019-03-10T01:49:15.732Z,10.48
2019-03-10T01:51:45.083Z,10.48
2019-03-10T01:54:14.436Z,10.45
2019-03-10T01:56:43.750Z,10.43
2019-03-10T01:59:13.063Z,10.44
2019-03-10T02:01:42.395Z,10.46
2019-03-10T02:04:11.849Z,10.50
2019-03-10T02:06:41.187Z,10.51
2019-03-10T02:09:10.631Z,10.53
2019-03-10T02:11:39.957Z,10.51
2019-03-10T02:14:09.311Z,10.50
2019-03-10T02:16:38.641Z,10.53
2019-03-10T02:19:07.987Z,10.51
2019-03-10T02:21:37.379Z,10.53
2019-03-10T02:24:06.686Z,10.56
2019-03-10T02:26:36.017Z,10.58
2019-03-10T02:29:05.343Z,10.59
2019-03-10T02:31:36.019Z,10.62
2019-03-10T02:34:05.387Z,10.61
2019-03-10T02:36:34.729Z,10.64
2019-03-10T02:39:05.826Z,10.65
2019-03-10T02:41:35.141Z,10.64
2019-03-10T02:44:04.575Z,10.65
2019-03-10T02:46:33.906Z,10.66
2019-03-10T02:49:03.229Z,10.67
2019-03-10T02:51:32.578Z,10.69
2019-03-10T02:54:01.907Z,10.69
2019-03-10T02:56:31.216Z,10.68
2019-03-10T02:59:00.553Z,10.65
2019-03-10T03:01:29.916Z,10.66
2019-03-10T03:03:59.263Z,10.62
2019-03-10T03:06:28.630Z,10.65
2019-03-10T03:08:57.953Z,10.66
2019-03-10T03:11:27.266Z,10.66
2019-03-10T03:13:56.619Z,10.65
2019-03-10T03:16:25.956Z,10.62
2019-03-10T03:18:55.267Z,10.56
2019-03-10T03:21:24.608Z,10.54
2019-03-10T03:23:53.965Z,10.53
2019-03-10T03:26:23.302Z,10.52
2019-03-10T03:28:52.768Z,10.53
2019-03-10T03:31:22.078Z,10.54
2019-03-10T03:33:51.412Z,10.55
2019-03-10T03:36:29.891Z,10.57
2019-03-10T03:39:41.049Z,10.55
2019-03-10T03:42:10.361Z,10.56
2019-03-10T03:44:39.700Z,10.57
2019-03-10T03:47:09.157Z,10.55
2019-03-10T03:49:38.636Z,10.55
2019-03-10T03:52:07.959Z,10.56
2019-03-10T03:54:37.311Z,10.55
2019-03-10T03:57:06.859Z,10.54
2019-03-10T03:59:36.203Z,10.54
2019-03-10T04:02:10.880Z,10.55
2019-03-10T04:04:40.197Z,10.53
2019-03-10T04:07:09.530Z,10.49
2019-03-10T04:09:38.927Z,10.46
2019-03-10T04:12:08.193Z,10.43
2019-03-10T04:14:38.550Z,10.41
2019-03-10T04:17:07.915Z,10.38
2019-03-10T04:19:37.226Z,10.36
2019-03-10T04:22:06.557Z,10.36
2019-03-10T04:24:35.892Z,10.34
2019-03-10T04:27:05.223Z,10.35
2019-03-10T04:29:34.591Z,10.32
2019-03-10T04:32:03.913Z,10.27
2019-03-10T04:34:33.275Z,10.22
2019-03-10T04:37:02.627Z,10.19
2019-03-10T04:39:31.989Z,10.17
2019-03-10T04:42:01.312Z,10.15
2019-03-10T04:44:30.664Z,10.15
2019-03-10T04:46:59.993Z,10.13
2019-03-10T04:49:29.344Z,10.13
2019-03-10T04:51:58.653Z,10.11
2019-03-10T04:54:45.754Z,10.08
2019-03-10T04:57:17.685Z,10.05
2019-03-10T04:59:47.027Z,10.01
2019-03-10T05:02:16.380Z,9.89
2019-03-10T05:04:48.699Z,9.85
2019-03-10T05:07:18.040Z,9.78
2019-03-10T05:09:47.349Z,9.73
2019-03-10T05:12:16.704Z,9.69
2019-03-10T05:14:46.021Z,9.63
2019-03-10T05:17:15.353Z,9.57
2019-03-10T05:19:44.688Z,9.52
2019-03-10T05:22:14.021Z,9.46
2019-03-10T05:24:43.388Z,9.38
2019-03-10T05:27:12.711Z,9.30
2019-03-10T05:29:42.061Z,9.27
2019-03-10T05:32:11.401Z,9.19
2019-03-10T05:34:40.774Z,9.14
2019-03-10T05:37:10.159Z,9.08
2019-03-10T05:39:39.461Z,8.99
2019-03-10T05:42:08.867Z,8.94
2019-03-10T05:44:38.256Z,8.90
2019-03-10T05:47:07.590Z,8.79
2019-03-10T05:49:36.908Z,8.66
2019-03-10T05:52:06.253Z,8.60
2019-03-10T05:54:35.589Z,8.51
2019-03-10T05:57:04.930Z,8.47
2019-03-10T05:59:34.372Z,8.40
2019-03-10T06:02:03.729Z,8.35
2019-03-10T06:04:33.037Z,8.32
2019-03-10T06:07:02.448Z,8.30
2019-03-10T06:09:31.799Z,8.24
2019-03-10T06:12:01.140Z,8.21
2019-03-10T06:14:30.562Z,8.16
2019-03-10T06:17:01.754Z,8.17
2019-03-10T06:19:31.046Z,8.12
2019-03-10T06:22:00.498Z,8.13
2019-03-10T06:24:29.808Z,8.10
2019-03-10T06:26:59.150Z,8.09
2019-03-10T06:29:28.520Z,8.06
2019-03-10T06:31:59.134Z,8.06
2019-03-10T06:34:28.508Z,8.05
2019-03-10T06:36:57.808Z,8.02
2019-03-10T06:39:27.141Z,8.02
2019-03-10T06:41:56.457Z,8.04
2019-03-10T06:44:27.324Z,8.03
2019-03-10T06:46:56.662Z,8.02
2019-03-10T06:49:26.000Z,8.05
2019-03-10T06:51:55.376Z,8.05
2019-03-10T06:54:24.731Z,8.07
2019-03-10T06:56:54.036Z,8.09
2019-03-10T06:59:23.386Z,8.10
2019-03-10T07:01:52.710Z,8.11
2019-03-10T07:04:22.084Z,8.13
2019-03-10T07:06:51.429Z,8.13
2019-03-10T07:09:20.847Z,8.14
2019-03-10T07:11:50.152Z,8.16
2019-03-10T07:14:19.643Z,8.19
2019-03-10T07:16:48.955Z,8.21
2019-03-10T07:19:18.278Z,8.25
2019-03-10T07:21:47.612Z,8.28
2019-03-10T07:24:16.981Z,8.29
2019-03-10T07:26:46.290Z,8.32
2019-03-10T07:29:34.545Z,8.35
2019-03-10T07:32:13.705Z,8.36
2019-03-10T07:35:05.057Z,8.35
2019-03-10T07:37:56.326Z,8.35
2019-03-10T07:40:33.039Z,8.33
2019-03-10T07:43:17.456Z,8.30
2019-03-10T07:46:04.432Z,8.31
2019-03-10T07:48:56.520Z,8.32
2019-03-10T07:51:35.996Z,8.35
2019-03-10T07:54:24.446Z,8.36
2019-03-10T07:57:12.998Z,8.37
2019-03-10T08:00:07.082Z,8.37
2019-03-10T08:02:55.569Z,8.35
2019-03-10T08:05:43.054Z,8.36
2019-03-10T08:08:20.661Z,8.34
2019-03-10T08:11:03.466Z,8.31
2019-03-10T08:13:57.535Z,8.30
2019-03-10T08:17:01.252Z,8.31
2019-03-10T08:19:55.621Z,8.31
2019-03-10T08:23:02.130Z,8.31
2019-03-10T08:25:50.453Z,8.33
2019-03-10T08:28:37.640Z,8.33
2019-03-10T08:31:19.801Z,8.35
2019-03-10T08:34:04.403Z,8.38
2019-03-10T08:36:58.659Z,8.40
2019-03-10T08:39:45.992Z,8.41
2019-03-10T08:42:24.010Z,8.35
2019-03-10T08:45:18.223Z,8.35
2019-03-10T08:48:15.807Z,8.33
2019-03-10T08:50:55.939Z,8.31
2019-03-10T08:53:45.169Z,8.33
2019-03-10T08:56:27.838Z,8.36
2019-03-10T08:59:25.232Z,8.44
2019-03-10T09:02:02.368Z,8.46
2019-03-10T09:04:43.051Z,8.48
2019-03-10T09:07:25.440Z,8.46
2019-03-10T09:10:07.077Z,8.44
2019-03-10T09:12:43.058Z,8.41
2019-03-10T09:15:41.291Z,8.45
2019-03-10T09:18:41.634Z,8.48
2019-03-10T09:21:27.936Z,8.25
2019-03-10T09:24:16.213Z,7.80
2019-03-10T09:27:07.427Z,7.58
2019-03-10T09:29:55.709Z,7.38
2019-03-10T09:32:46.792Z,7.17
2019-03-10T09:35:20.847Z,7.07
2019-03-10T09:37:59.522Z,7.02
2019-03-10T09:40:46.554Z,6.97
2019-03-10T09:43:26.529Z,7.00
2019-03-10T09:46:20.853Z,7.06
2019-03-10T09:49:15.040Z,7.06
2019-03-10T09:51:50.823Z,7.12
2019-03-10T09:54:57.278Z,7.19
2019-03-10T09:57:44.273Z,7.30
2019-03-10T10:00:32.581Z,7.77
2019-03-10T10:03:35.873Z,8.00
2019-03-10T10:06:26.924Z,8.10
2019-03-10T10:09:04.593Z,8.16
2019-03-10T10:11:46.037Z,8.23
2019-03-10T10:14:43.307Z,8.27
2019-03-10T10:17:34.763Z,8.30
2019-03-10T10:20:16.855Z,8.29
2019-03-10T10:23:08.003Z,8.36
2019-03-10T10:25:45.986Z,8.42
2019-03-10T10:28:41.066Z,8.40
2019-03-10T10:31:32.269Z,8.36
2019-03-10T10:34:20.621Z,8.34
2019-03-10T10:37:14.900Z,8.34
2019-03-10T10:40:01.656Z,8.34
2019-03-10T10:42:55.272Z,8.32
2019-03-10T10:45:53.637Z,8.29
2019-03-10T10:48:28.197Z,8.35
2019-03-10T10:51:19.739Z,8.35
2019-03-10T10:54:17.290Z,8.35
2019-03-10T10:57:04.119Z,8.36
2019-03-10T10:59:55.590Z,8.42
2019-03-10T11:02:49.812Z,8.41
2019-03-10T11:05:30.981Z,8.30
2019-03-10T11:08:15.951Z,8.06
2019-03-10T11:10:59.578Z,8.01
2019-03-10T11:13:39.810Z,8.05
2019-03-10T11:16:45.431Z,8.11
2019-03-10T11:19:22.596Z,8.09
2019-03-10T11:22:20.159Z,8.11
2019-03-10T11:25:00.125Z,8.15
2019-03-10T11:27:46.940Z,8.27
2019-03-10T11:30:35.202Z,8.34
2019-03-10T11:33:21.950Z,8.34
2019-03-10T11:36:15.821Z,8.31
2019-03-10T11:39:00.439Z,8.33
2019-03-10T11:41:48.087Z,8.42
2019-03-10T11:44:30.016Z,8.50
2019-03-10T11:47:18.289Z,8.55
2019-03-10T11:50:04.496Z,8.62
2019-03-10T11:52:39.296Z,8.71
2019-03-10T11:55:26.501Z,8.82
2019-03-10T11:58:17.755Z,8.92
2019-03-10T12:00:57.018Z,8.98
2019-03-10T12:03:42.541Z,8.93
2019-03-10T12:06:20.174Z,8.94
2019-03-10T12:09:07.122Z,8.95
2019-03-10T12:11:36.498Z,8.98
2019-03-10T12:14:05.823Z,9.02
2019-03-10T12:16:35.188Z,9.07
2019-03-10T12:19:04.556Z,9.11
2019-03-10T12:21:33.929Z,9.01
2019-03-10T12:24:03.258Z,8.95
2019-03-10T12:26:32.618Z,8.98
2019-03-10T12:29:01.940Z,8.97
2019-03-10T12:31:31.296Z,9.04
2019-03-10T12:34:00.652Z,9.19
2019-03-10T12:36:30.019Z,9.24
2019-03-10T12:38:59.381Z,9.25
2019-03-10T12:41:28.786Z,9.23
2019-03-10T12:43:58.155Z,9.29
2019-03-10T12:46:27.499Z,9.41
2019-03-10T12:48:56.858Z,9.45
2019-03-10T12:51:26.206Z,9.54
2019-03-10T12:53:55.534Z,9.57
2019-03-10T12:56:24.885Z,9.57
2019-03-10T12:58:54.220Z,9.65
2019-03-10T13:01:23.576Z,9.65
2019-03-10T13:03:58.722Z,9.65
2019-03-10T13:06:23.985Z,9.61
2019-03-10T13:08:53.359Z,9.64
2019-03-10T13:11:22.693Z,9.69
2019-03-10T13:13:52.063Z,9.65
2019-03-10T13:16:21.397Z,9.75
2019-03-10T13:18:50.732Z,9.88
2019-03-10T13:21:20.260Z,10.06
2019-03-10T13:23:49.619Z,10.05
2019-03-10T13:26:18.939Z,10.06
2019-03-10T13:28:48.313Z,10.09
2019-03-10T13:31:17.656Z,10.14
2019-03-10T13:33:47.009Z,10.21
2019-03-10T13:36:16.356Z,10.26
2019-03-10T13:38:45.735Z,10.32
2019-03-10T13:41:15.078Z,10.36
2019-03-10T13:43:47.502Z,10.40
2019-03-10T13:46:16.845Z,10.40
2019-03-10T13:48:46.247Z,10.32
2019-03-10T13:51:15.585Z,10.13
2019-03-10T13:53:44.934Z,10.11
2019-03-10T13:56:14.245Z,10.18
2019-03-10T13:58:43.583Z,10.32
2019-03-10T14:01:12.916Z,10.43
2019-03-10T14:03:42.440Z,10.54
2019-03-10T14:06:11.781Z,10.69
2019-03-10T14:08:41.118Z,10.71
2019-03-10T14:11:10.489Z,10.78
2019-03-10T14:13:39.842Z,10.82
2019-03-10T14:16:09.186Z,10.75
2019-03-10T14:18:38.498Z,10.61
2019-03-10T14:21:07.944Z,10.43
2019-03-10T14:23:37.326Z,10.25
2019-03-10T14:26:06.767Z,10.13
2019-03-10T14:28:36.104Z,9.87
2019-03-10T14:31:05.456Z,9.56
2019-03-10T14:33:34.922Z,9.25
2019-03-10T14:36:04.299Z,9.07
2019-03-10T14:38:42.190Z,8.99
2019-03-10T14:41:11.568Z,9.02
2019-03-10T14:43:40.919Z,9.13
2019-03-10T14:46:12.618Z,9.16
2019-03-10T14:48:41.953Z,9.15
2019-03-10T14:51:16.203Z,9.14
2019-03-10T14:53:45.549Z,9.14
2019-03-10T14:56:14.906Z,9.19
2019-03-10T14:58:44.385Z,9.26
2019-03-10T15:01:13.709Z,9.35
2019-03-10T15:03:43.068Z,9.43
2019-03-10T15:06:12.499Z,9.52
2019-03-10T15:08:42.003Z,9.51
2019-03-10T15:11:11.384Z,9.50
2019-03-10T15:13:40.747Z,9.49
2019-03-10T15:16:10.107Z,9.49
2019-03-10T15:18:39.418Z,9.52
2019-03-10T15:21:08.760Z,9.64
2019-03-10T15:23:40.235Z,9.86
2019-03-10T15:26:09.257Z,10.00
2019-03-10T15:28:38.675Z,9.98
2019-03-10T15:31:08.402Z,9.93
2019-03-10T15:33:37.743Z,9.90
2019-03-10T15:36:07.095Z,9.88
2019-03-10T15:38:36.472Z,9.91
2019-03-10T15:41:05.816Z,9.98
2019-03-10T15:43:35.294Z,10.01
2019-03-10T15:46:04.742Z,10.04
2019-03-10T15:48:34.097Z,10.04
2019-03-10T15:51:03.497Z,9.88
2019-03-10T15:53:32.821Z,9.66
2019-03-10T15:56:02.154Z,9.45
2019-03-10T15:58:31.509Z,9.28
2019-03-10T16:01:00.846Z,9.12
2019-03-10T16:03:30.289Z,9.02
2019-03-10T16:05:59.598Z,8.94
2019-03-10T16:08:28.949Z,8.94
2019-03-10T16:10:58.325Z,8.97
2019-03-10T16:13:27.661Z,9.03
2019-03-10T16:15:57.007Z,9.06
2019-03-10T16:18:26.597Z,9.03
2019-03-10T16:20:55.929Z,9.00
2019-03-10T16:23:25.317Z,8.96
2019-03-10T16:25:54.881Z,8.94
2019-03-10T16:28:24.282Z,8.94
2019-03-10T16:30:53.990Z,9.08
2019-03-10T16:33:25.369Z,9.06
2019-03-10T16:35:54.333Z,8.98
2019-03-10T16:38:23.703Z,9.01
2019-03-10T16:40:53.091Z,8.97
2019-03-10T16:43:22.674Z,9.00
2019-03-10T16:45:52.180Z,9.00
2019-03-10T16:48:21.524Z,9.07
2019-03-10T16:50:50.955Z,9.06
2019-03-10T16:53:20.287Z,9.10
2019-03-10T16:55:49.649Z,9.13
2019-03-10T16:58:19.102Z,9.25
2019-03-10T17:00:48.517Z,9.31
2019-03-10T17:03:19.450Z,9.22
2019-03-10T17:05:48.797Z,9.12
2019-03-10T17:08:18.190Z,9.00
2019-03-10T17:10:47.565Z,8.91
2019-03-10T17:13:16.890Z,8.82
2019-03-10T17:15:46.264Z,8.75
2019-03-10T17:18:15.622Z,8.68
2019-03-10T17:20:45.057Z,8.59
2019-03-10T17:23:14.414Z,8.45
2019-03-10T17:25:43.754Z,7.79
2019-03-10T17:28:13.159Z,7.02
2019-03-10T17:30:42.947Z,6.58
2019-03-10T17:33:12.339Z,6.36
2019-03-10T17:35:41.658Z,6.26
2019-03-10T17:38:11.011Z,6.27
2019-03-10T17:40:40.379Z,6.29
2019-03-10T17:43:09.788Z,6.33
2019-03-10T17:45:39.176Z,6.41
2019-03-10T17:48:08.499Z,6.49
2019-03-10T17:50:37.856Z,6.50
2019-03-10T17:53:07.597Z,6.55
2019-03-10T17:55:37.008Z,6.58
2019-03-10T17:58:06.337Z,6.62
2019-03-10T18:00:35.971Z,6.63
2019-03-10T18:03:05.432Z,6.64
2019-03-10T18:05:34.785Z,6.64
2019-03-10T18:08:04.370Z,6.66
2019-03-10T18:10:33.818Z,6.67
2019-03-10T18:13:03.839Z,6.68
2019-03-10T18:15:33.205Z,6.71
2019-03-10T18:18:02.528Z,6.72
2019-03-10T18:20:31.854Z,6.74
2019-03-10T18:23:01.168Z,6.79
2019-03-10T18:25:30.512Z,6.83
2019-03-10T18:27:59.869Z,6.86
2019-03-10T18:30:29.229Z,6.90
2019-03-10T18:32:58.547Z,6.94
2019-03-10T18:35:27.859Z,6.98
2019-03-10T18:37:57.198Z,7.03
2019-03-10T18:40:35.589Z,7.06
2019-03-10T18:43:04.924Z,7.08
2019-03-10T18:45:34.285Z,7.12
2019-03-10T18:48:12.532Z,6.98
2019-03-10T18:50:41.911Z,6.80
2019-03-10T18:53:11.267Z,6.64
2019-03-10T18:55:40.634Z,6.53
2019-03-10T18:58:09.957Z,6.44
2019-03-10T19:00:39.279Z,6.37
2019-03-10T19:03:08.722Z,6.33
2019-03-10T19:05:41.026Z,6.32
2019-03-10T19:08:10.411Z,6.29
2019-03-10T19:10:39.761Z,6.30
2019-03-10T19:13:09.085Z,6.29
2019-03-10T19:15:38.459Z,6.33
2019-03-10T19:18:07.779Z,6.36
2019-03-10T19:20:37.111Z,6.39
2019-03-10T19:23:06.680Z,6.43
2019-03-10T19:25:36.011Z,6.48
2019-03-10T19:28:07.190Z,6.52
2019-03-10T19:30:36.547Z,6.56
2019-03-10T19:33:05.844Z,6.59
2019-03-10T19:35:35.319Z,6.64
2019-03-10T19:38:04.814Z,6.66
2019-03-10T19:40:34.284Z,6.60
2019-03-10T19:43:03.624Z,6.56
2019-03-10T19:45:32.990Z,6.52
2019-03-10T19:48:04.192Z,6.48
2019-03-10T19:50:33.526Z,6.46
2019-03-10T19:53:02.890Z,6.40
2019-03-10T19:55:32.211Z,6.40
2019-03-10T19:58:01.593Z,6.39
2019-03-10T20:00:31.015Z,6.43
2019-03-10T20:03:00.507Z,6.47
2019-03-10T20:05:29.906Z,6.51
2019-03-10T20:07:59.258Z,6.54
2019-03-10T20:10:28.651Z,6.57
2019-03-10T20:12:58.016Z,6.63
2019-03-10T20:15:27.383Z,6.67
2019-03-10T20:17:56.721Z,6.68
2019-03-10T20:20:26.106Z,6.71
2019-03-10T20:22:55.562Z,6.73
2019-03-10T20:25:26.651Z,6.74
2019-03-10T20:27:55.961Z,6.76
2019-03-10T20:30:25.317Z,6.77
2019-03-10T20:32:54.648Z,6.78
2019-03-10T20:35:25.824Z,6.79
2019-03-10T20:37:56.922Z,6.80
2019-03-10T20:40:27.506Z,6.81
2019-03-10T20:42:56.826Z,6.82
2019-03-10T20:45:26.187Z,6.82
2019-03-10T20:47:56.799Z,6.82
2019-03-10T20:50:26.433Z,6.82
2019-03-10T20:52:55.878Z,6.81
2019-03-10T20:55:25.188Z,6.80
2019-03-10T20:57:54.503Z,6.78
2019-03-10T21:00:23.856Z,6.79
2019-03-10T21:02:53.190Z,6.78
2019-03-10T21:05:22.526Z,6.80
2019-03-10T21:07:51.858Z,6.82
2019-03-10T21:10:21.209Z,6.83
2019-03-10T21:12:50.530Z,6.85
2019-03-10T21:15:20.180Z,6.86
2019-03-10T21:17:50.918Z,6.60
2019-03-10T21:20:20.234Z,6.35
2019-03-10T21:22:49.586Z,6.23
2019-03-10T21:25:20.335Z,6.10
2019-03-10T21:27:50.671Z,5.95
2019-03-10T21:30:21.823Z,5.90
2019-03-10T21:32:51.174Z,5.86
2019-03-10T21:35:20.636Z,5.83
2019-03-10T21:37:49.952Z,5.79
2019-03-10T21:40:20.997Z,5.73
2019-03-10T21:42:50.424Z,5.69
2019-03-10T21:45:21.009Z,5.71
2019-03-10T21:47:50.358Z,5.72
2019-03-10T21:50:19.835Z,5.74
2019-03-10T21:52:49.160Z,5.76
2019-03-10T21:55:18.503Z,5.78
2019-03-10T21:57:47.812Z,5.82
2019-03-10T22:00:17.313Z,5.84
2019-03-10T22:02:46.850Z,5.85
2019-03-10T22:05:16.180Z,5.83
2019-03-10T22:07:45.823Z,5.82
2019-03-10T22:10:26.167Z,5.84
2019-03-10T22:12:46.582Z,5.85
2019-03-10T22:15:16.258Z,5.87
2019-03-10T22:17:45.596Z,5.91
2019-03-10T22:20:15.199Z,5.95
2019-03-10T22:22:48.768Z,6.02
2019-03-10T22:25:16.108Z,6.05
2019-03-10T22:27:46.241Z,6.09
2019-03-10T22:30:17.711Z,6.17
2019-03-10T22:32:47.045Z,6.25
2019-03-10T22:35:16.480Z,6.30
2019-03-10T22:37:46.003Z,6.33
2019-03-10T22:40:15.573Z,6.36
2019-03-10T22:42:44.911Z,6.36
2019-03-10T22:45:14.466Z,6.37
2019-03-10T22:47:43.836Z,6.39
2019-03-10T22:50:13.550Z,6.40
2019-03-10T22:52:43.105Z,6.43
2019-03-10T22:55:12.998Z,6.45
2019-03-10T22:57:42.341Z,6.47
2019-03-10T23:00:15.515Z,6.48
2019-03-10T23:02:44.832Z,6.50
2019-03-10T23:05:14.158Z,6.52
2019-03-10T23:07:43.489Z,6.53
2019-03-10T23:10:14.543Z,6.52
2019-03-10T23:12:43.901Z,6.52
2019-03-10T23:15:13.353Z,6.53
2019-03-10T23:17:42.689Z,6.52
2019-03-10T23:20:13.218Z,6.52
2019-03-10T23:22:42.570Z,6.54
2019-03-10T23:25:11.991Z,6.54
2019-03-10T23:27:41.427Z,6.56
2019-03-10T23:30:13.346Z,6.57
2019-03-10T23:32:42.929Z,6.60
2019-03-10T23:35:13.525Z,6.60
2019-03-10T23:37:42.892Z,6.64
2019-03-10T23:40:12.491Z,6.65
2019-03-10T23:42:43.024Z,6.66
2019-03-10T23:45:12.829Z,6.67
2019-03-10T23:47:42.178Z,6.68
2019-03-10T23:50:12.329Z,6.68
2019-03-10T23:52:41.672Z,6.68
2019-03-10T23:55:12.889Z,6.68
2019-03-10T23:57:42.212Z,6.66
